Search for airport 
image banner adimage banner adimage banner ad
image banner ad

KTHV - York

Located in York, United States

ICAO - THV, IATA - THV

Data provided by Airmate  

General information

Coordinates: N39°55'1" W76°52'23"
Elevation is 495 feet MSL.
Magnetic variation is -11° East
View others Airports in Pennsylvania

Operational data

Special qualification required
Current time UTC:
Current local time:
Weather
METAR: KTHV 182253Z AUTO 25003KT 10SM CLR 24/08 A3027 RMK AO2 SLP251 T02440078
View NOTAMs / SUP AIP / TFR affecting this airport [VIEW]
Communications frequencies: [VIEW]

Runways:

RWY identifierQFULength (ft)Width (ft)SurfaceLDA (ft)
17155°5188100ASPH
35335°5188100ASPH

Airport contact information

Address: York United States

Other aviation service providers

Flight schools

York Flight Training

York Flight Training

Satellite view of KTHV